Time;durP1;ratioP1;P1;durP2;ratioP2;P2;SDS_P1;SDS_P2;PMS_P1;PMS_P2;Temp;Humidity;BMP_temperature;BMP_pressure;BME280_temperature;BME280_humidity;BME280_pressure;Samples;Min_cycle;Max_cycle;Signal;HPM_P1;HPM_P2
2021/06/04 00:02:12;;;;;;;9.60;6.00;;;16.10;99.90;;;;;;5023458;28;20029;-77
2021/06/04 00:04:37;;;;;;;11.80;5.50;;;16.20;99.90;;;;;;5024604;28;20538;-78
2021/06/04 00:07:06;;;;;;;10.30;5.93;;;16.20;99.90;;;;;;5022626;28;20045;-78
2021/06/04 00:09:31;;;;;;;7.95;5.25;;;16.20;99.90;;;;;;5022678;28;20067;-77
2021/06/04 00:12:00;;;;;;;10.23;6.28;;;16.20;99.90;;;;;;5024210;28;20026;-79
2021/06/04 00:14:35;;;;;;;11.98;6.10;;;16.20;99.90;;;;;;5023595;28;20053;-79
2021/06/04 00:17:12;;;;;;;11.15;5.97;;;16.20;99.90;;;;;;5023158;28;20033;-78
2021/06/04 00:19:38;;;;;;;20.38;5.93;;;16.20;99.90;;;;;;5023277;28;20097;-78
2021/06/04 00:22:07;;;;;;;12.02;5.35;;;16.30;99.90;;;;;;5022463;28;20021;-78
2021/06/04 00:24:35;;;;;;;11.20;5.82;;;16.20;99.90;;;;;;5024162;28;21033;-78
2021/06/04 00:27:01;;;;;;;8.65;5.25;;;16.20;99.90;;;;;;5023825;28;20506;-78
2021/06/04 00:29:26;;;;;;;9.43;5.68;;;16.20;99.90;;;;;;5023893;28;20060;-79
2021/06/04 00:31:53;;;;;;;10.52;6.00;;;16.10;99.90;;;;;;5023033;28;20040;-77
2021/06/04 00:34:20;;;;;;;12.45;5.40;;;16.20;99.90;;;;;;5026477;28;20026;-77
2021/06/04 00:36:45;;;;;;;12.57;5.88;;;16.20;99.90;;;;;;5028122;28;20034;-79
2021/06/04 00:39:14;;;;;;;9.40;5.53;;;16.20;99.90;;;;;;5027729;28;20073;-78
2021/06/04 00:41:51;;;;;;;9.90;5.88;;;16.20;99.90;;;;;;5028052;28;20037;-79
2021/06/04 00:44:18;;;;;;;9.75;5.97;;;16.20;99.90;;;;;;5026879;28;20511;-80
2021/06/04 00:46:44;;;;;;;10.23;5.70;;;16.20;99.90;;;;;;5029872;28;20479;-82
2021/06/04 00:49:10;;;;;;;9.60;5.97;;;16.20;99.90;;;;;;5027875;28;20049;-80
2021/06/04 00:51:40;;;;;;;10.02;6.40;;;16.30;99.90;;;;;;5027445;28;20049;-79
2021/06/04 00:54:08;;;;;;;11.25;6.10;;;16.20;99.90;;;;;;5027242;28;20470;-77
2021/06/04 00:56:35;;;;;;;10.15;6.03;;;16.20;99.90;;;;;;5026770;28;20034;-80
2021/06/04 00:59:01;;;;;;;10.52;5.25;;;16.30;99.90;;;;;;5027663;28;20021;-79
2021/06/04 01:01:30;;;;;;;10.88;5.25;;;16.30;99.90;;;;;;5026931;28;20474;-79
2021/06/04 01:04:08;;;;;;;11.00;6.60;;;16.30;99.90;;;;;;5028180;28;20077;-78
2021/06/04 01:06:58;;;;;;;9.65;5.75;;;16.30;99.90;;;;;;5028493;28;20022;-80
2021/06/04 01:09:26;;;;;;;10.32;6.20;;;16.30;99.90;;;;;;5028434;28;20066;-79
2021/06/04 01:12:07;;;;;;;10.70;6.20;;;16.30;99.90;;;;;;5028196;28;20471;-77
2021/06/04 01:14:47;;;;;;;11.05;6.53;;;16.30;99.90;;;;;;5027155;28;20038;-78
2021/06/04 01:17:28;;;;;;;20.70;5.93;;;16.20;99.90;;;;;;5027907;28;20029;-79
2021/06/04 01:20:15;;;;;;;10.57;5.82;;;16.20;99.90;;;;;;5028093;28;20537;-77
2021/06/04 01:22:56;;;;;;;9.85;5.97;;;16.20;99.90;;;;;;5028947;28;20072;-78
2021/06/04 01:25:45;;;;;;;11.00;6.72;;;16.10;99.90;;;;;;5007160;28;20041;-78
2021/06/04 01:28:18;;;;;;;9.63;5.63;;;16.10;99.90;;;;;;5032785;28;20026;-79
2021/06/04 01:31:10;;;;;;;10.93;6.28;;;16.00;99.90;;;;;;5025924;28;20156;-80
2021/06/04 01:33:50;;;;;;;12.73;6.00;;;16.00;99.90;;;;;;4988810;28;20038;-78
2021/06/04 01:36:20;;;;;;;12.65;6.22;;;15.90;99.90;;;;;;5008495;28;20030;-80
2021/06/04 01:38:48;;;;;;;9.20;5.32;;;15.90;99.90;;;;;;5005556;28;20029;-79
2021/06/04 01:41:17;;;;;;;10.60;6.70;;;15.90;99.90;;;;;;5006298;28;20034;-78
2021/06/04 01:44:03;;;;;;;14.80;6.78;;;15.90;99.90;;;;;;5007624;28;20026;-78
2021/06/04 01:46:35;;;;;;;16.00;7.22;;;15.70;99.90;;;;;;5006811;28;20041;-78
2021/06/04 01:49:08;;;;;;;11.02;6.57;;;15.80;99.90;;;;;;5007479;28;20045;-79
2021/06/04 01:51:52;;;;;;;12.80;7.45;;;15.80;99.90;;;;;;5005862;28;20077;-79
2021/06/04 01:54:32;;;;;;;11.90;6.53;;;15.70;99.90;;;;;;5007938;28;20034;-78
2021/06/04 01:57:04;;;;;;;10.48;6.22;;;15.70;99.90;;;;;;5007186;28;20378;-78
2021/06/04 01:59:34;;;;;;;17.48;6.68;;;15.70;99.90;;;;;;5005923;28;20026;-78
2021/06/04 02:02:01;;;;;;;11.55;6.80;;;15.70;99.90;;;;;;5007404;28;20023;-76
2021/06/04 02:04:33;;;;;;;17.50;6.55;;;15.60;99.90;;;;;;5005592;28;20026;-77
2021/06/04 02:06:59;;;;;;;11.90;7.00;;;15.60;99.90;;;;;;5005676;28;20034;-78
2021/06/04 02:09:27;;;;;;;11.82;6.18;;;15.50;99.90;;;;;;5005648;28;20101;-79
2021/06/04 02:11:54;;;;;;;12.00;6.05;;;15.50;99.90;;;;;;5006503;28;20023;-78
2021/06/04 02:14:26;;;;;;;11.50;6.65;;;15.40;99.90;;;;;;5005667;28;20026;-79
2021/06/04 02:17:06;;;;;;;10.43;7.30;;;15.60;99.90;;;;;;5006904;28;20035;-78
2021/06/04 02:19:48;;;;;;;10.45;6.43;;;15.50;99.90;;;;;;5005179;28;20037;-78
2021/06/04 02:22:24;;;;;;;11.88;7.05;;;15.50;99.90;;;;;;5005905;28;20030;-80
2021/06/04 02:25:01;;;;;;;11.57;6.72;;;15.50;99.90;;;;;;5005451;28;20026;-79
2021/06/04 02:27:35;;;;;;;12.05;6.75;;;15.50;99.90;;;;;;5006671;28;20058;-78
2021/06/04 02:30:14;;;;;;;14.35;6.65;;;15.40;99.90;;;;;;5005471;28;20133;-79
2021/06/04 02:32:59;;;;;;;12.68;7.38;;;15.50;99.90;;;;;;5005208;28;20029;-78
2021/06/04 02:35:36;;;;;;;10.45;6.25;;;15.50;99.90;;;;;;5006521;28;20026;-80
2021/06/04 02:38:23;;;;;;;11.55;6.45;;;15.40;99.90;;;;;;5005201;28;20910;-78
2021/06/04 02:40:57;;;;;;;15.43;7.60;;;15.50;99.90;;;;;;5004955;28;20061;-79
2021/06/04 02:43:31;;;;;;;12.90;6.80;;;15.40;99.90;;;;;;5005038;28;20038;-77
2021/06/04 02:46:06;;;;;;;16.33;7.47;;;15.30;99.90;;;;;;5004994;28;20057;-77
2021/06/04 02:48:32;;;;;;;13.48;7.18;;;15.40;99.90;;;;;;5006152;28;20062;-79
2021/06/04 02:51:17;;;;;;;22.08;6.88;;;15.40;99.90;;;;;;5004918;28;20058;-78
2021/06/04 02:53:48;;;;;;;11.52;6.97;;;15.40;99.90;;;;;;5006115;28;20050;-79
2021/06/04 02:56:19;;;;;;;10.73;6.18;;;15.30;99.90;;;;;;5005326;28;20061;-78
2021/06/04 02:58:52;;;;;;;16.05;6.50;;;15.30;99.90;;;;;;5005593;28;20054;-78
2021/06/04 03:01:19;;;;;;;11.13;6.65;;;15.30;99.90;;;;;;5005714;28;20034;-77
2021/06/04 03:03:48;;;;;;;19.90;7.47;;;15.30;99.90;;;;;;5005882;28;20022;-78
2021/06/04 03:06:16;;;;;;;14.00;7.13;;;15.30;99.90;;;;;;5004619;28;20030;-79
2021/06/04 03:08:44;;;;;;;12.52;6.38;;;15.30;99.90;;;;;;5004098;28;20068;-77
2021/06/04 03:11:11;;;;;;;11.52;6.65;;;15.20;99.90;;;;;;5006054;28;20034;-77
2021/06/04 03:13:36;;;;;;;12.02;6.78;;;15.20;99.90;;;;;;5005010;28;20041;-78
2021/06/04 03:16:10;;;;;;;14.05;6.68;;;15.20;99.90;;;;;;5004154;28;20023;-76
2021/06/04 03:18:44;;;;;;;17.83;7.68;;;15.20;99.90;;;;;;5005829;28;20038;-77
2021/06/04 03:21:33;;;;;;;13.00;7.32;;;15.20;99.90;;;;;;5004265;28;20041;-78
2021/06/04 03:24:03;;;;;;;11.55;7.05;;;15.20;99.90;;;;;;5005591;28;20054;-77
2021/06/04 03:26:31;;;;;;;17.83;7.38;;;15.30;99.90;;;;;;5003768;28;20046;-78
2021/06/04 03:29:00;;;;;;;22.58;7.25;;;15.10;99.90;;;;;;5003909;28;20418;-78
2021/06/04 03:31:30;;;;;;;12.65;8.05;;;15.20;99.90;;;;;;5005571;28;20037;-76
2021/06/04 03:33:56;;;;;;;11.77;6.63;;;15.20;99.90;;;;;;5005145;28;20084;-77
2021/06/04 03:36:28;;;;;;;14.68;7.50;;;15.20;99.90;;;;;;5003350;28;20061;-77
2021/06/04 03:38:54;;;;;;;20.48;7.22;;;15.20;99.90;;;;;;5004629;28;20026;-77
2021/06/04 03:41:26;;;;;;;15.93;8.25;;;15.30;99.90;;;;;;5005102;28;20104;-78
2021/06/04 03:43:52;;;;;;;14.27;7.25;;;15.20;99.90;;;;;;5005355;28;20030;-79
2021/06/04 03:46:18;;;;;;;14.35;7.90;;;15.30;99.90;;;;;;5005296;28;20486;-79
2021/06/04 03:48:44;;;;;;;14.73;8.13;;;15.30;99.90;;;;;;5003715;28;20084;-78
2021/06/04 03:51:20;;;;;;;22.15;7.68;;;15.20;99.90;;;;;;5004052;28;20062;-77
2021/06/04 03:53:46;;;;;;;15.48;6.85;;;15.30;99.90;;;;;;5004823;28;20025;-77
2021/06/04 03:56:14;;;;;;;14.88;7.90;;;15.40;99.90;;;;;;5003612;28;20027;-78
2021/06/04 03:58:41;;;;;;;16.30;8.88;;;15.30;99.90;;;;;;5004251;28;20058;-77
2021/06/04 04:01:13;;;;;;;25.05;7.00;;;15.40;99.90;;;;;;5004989;28;20761;-78
2021/06/04 04:03:39;;;;;;;13.60;6.55;;;15.40;99.90;;;;;;5003549;28;21101;-77
2021/06/04 04:06:06;;;;;;;11.93;7.25;;;15.40;99.90;;;;;;5004951;28;20038;-76
2021/06/04 04:08:31;;;;;;;18.65;6.63;;;15.50;99.90;;;;;;5005047;28;20052;-79
2021/06/04 04:10:58;;;;;;;15.20;8.27;;;15.50;99.90;;;;;;5007155;28;20054;-77
2021/06/04 04:13:25;;;;;;;13.70;7.97;;;15.60;99.90;;;;;;5007595;28;20034;-77
2021/06/04 04:15:51;;;;;;;13.32;8.20;;;15.50;99.90;;;;;;5007813;28;20038;-78
2021/06/04 04:18:17;;;;;;;16.42;8.93;;;15.60;99.90;;;;;;5008232;28;20046;-78
2021/06/04 04:20:47;;;;;;;15.88;9.38;;;15.60;99.90;;;;;;5007976;28;20030;-78
2021/06/04 04:23:25;;;;;;;15.52;7.95;;;15.60;99.90;;;;;;5009187;28;20061;-77
2021/06/04 04:25:51;;;;;;;15.48;7.95;;;15.60;99.90;;;;;;5008580;28;20046;-77
2021/06/04 04:28:22;;;;;;;10.52;7.10;;;15.70;99.90;;;;;;5006422;28;20030;-77
2021/06/04 04:30:47;;;;;;;15.57;7.88;;;15.70;99.90;;;;;;5008394;28;20030;-77
2021/06/04 04:33:13;;;;;;;15.15;9.18;;;15.70;99.90;;;;;;5007549;28;20040;-78
2021/06/04 04:35:40;;;;;;;13.18;7.50;;;15.80;99.90;;;;;;5008145;28;20049;-79
2021/06/04 04:38:08;;;;;;;16.58;7.40;;;15.80;99.90;;;;;;5007853;28;20037;-76
2021/06/04 04:40:37;;;;;;;14.85;7.88;;;15.70;99.90;;;;;;5006328;28;20053;-78
2021/06/04 04:43:04;;;;;;;13.75;8.20;;;15.80;99.90;;;;;;5007090;28;20137;-77
2021/06/04 04:45:31;;;;;;;11.85;7.55;;;15.90;99.90;;;;;;5007849;28;20045;-76
2021/06/04 04:47:58;;;;;;;17.48;7.63;;;15.90;99.90;;;;;;5007130;28;20061;-76
2021/06/04 04:50:26;;;;;;;15.63;7.55;;;15.90;99.90;;;;;;5006640;28;20038;-77
2021/06/04 04:52:52;;;;;;;10.77;6.63;;;16.00;99.90;;;;;;5006999;28;20098;-78
2021/06/04 04:55:18;;;;;;;20.98;8.10;;;16.00;99.90;;;;;;5006505;28;20049;-76
2021/06/04 04:57:44;;;;;;;12.23;6.80;;;16.00;99.90;;;;;;5006414;28;20134;-75
2021/06/04 05:00:16;;;;;;;16.92;8.40;;;16.10;99.90;;;;;;5007039;28;20038;-75
2021/06/04 05:02:41;;;;;;;13.73;6.70;;;16.10;99.90;;;;;;5007140;28;20073;-75
2021/06/04 05:05:08;;;;;;;13.88;7.85;;;16.10;99.90;;;;;;5007909;28;20030;-74
2021/06/04 05:07:33;;;;;;;13.60;7.28;;;16.20;99.90;;;;;;5008167;28;20076;-75
2021/06/04 05:09:59;;;;;;;9.70;6.20;;;16.20;99.90;;;;;;5017000;28;20129;-74
2021/06/04 05:12:25;;;;;;;12.95;7.63;;;16.20;99.90;;;;;;5033433;28;20029;-73
2021/06/04 05:14:51;;;;;;;13.55;8.02;;;16.20;99.90;;;;;;5030197;28;20053;-75
2021/06/04 05:17:17;;;;;;;16.52;7.18;;;16.30;99.90;;;;;;5025752;28;20053;-75
2021/06/04 05:19:46;;;;;;;13.23;7.50;;;16.30;99.90;;;;;;5025042;28;20038;-74
2021/06/04 05:22:12;;;;;;;16.20;8.25;;;16.30;99.90;;;;;;5027736;28;20118;-76
2021/06/04 05:24:38;;;;;;;13.05;8.40;;;16.30;99.90;;;;;;5024850;28;20483;-74
2021/06/04 05:27:04;;;;;;;15.85;8.57;;;16.40;99.90;;;;;;5026662;28;20092;-74
2021/06/04 05:29:30;;;;;;;15.57;8.02;;;16.40;99.90;;;;;;5026349;28;20068;-75
2021/06/04 05:31:56;;;;;;;25.70;9.48;;;16.50;99.90;;;;;;5028456;28;20053;-73
2021/06/04 05:34:21;;;;;;;16.13;8.02;;;16.50;99.90;;;;;;5025642;28;20030;-72
2021/06/04 05:36:47;;;;;;;16.00;7.90;;;16.50;99.90;;;;;;5029559;28;20022;-73
2021/06/04 05:39:16;;;;;;;15.90;8.88;;;16.60;99.90;;;;;;5038517;28;20045;-74
2021/06/04 05:41:46;;;;;;;14.70;8.77;;;16.60;99.90;;;;;;5033400;28;20026;-73
2021/06/04 05:44:14;;;;;;;17.55;9.48;;;16.70;99.90;;;;;;5007946;28;20038;-74
2021/06/04 05:46:42;;;;;;;17.13;8.82;;;16.70;99.90;;;;;;5046615;28;20049;-75
2021/06/04 05:49:08;;;;;;;16.38;7.97;;;16.80;99.90;;;;;;5046444;28;20049;-75
2021/06/04 05:51:34;;;;;;;14.52;6.90;;;16.80;99.90;;;;;;5045391;28;20034;-73
2021/06/04 05:54:00;;;;;;;13.60;8.43;;;16.80;99.90;;;;;;5046057;28;20029;-73
2021/06/04 05:56:27;;;;;;;14.93;7.63;;;16.80;99.90;;;;;;5046216;28;20029;-74
2021/06/04 05:58:54;;;;;;;14.70;7.65;;;16.80;99.90;;;;;;5046650;28;20025;-74
2021/06/04 06:01:23;;;;;;;13.30;7.68;;;16.80;99.90;;;;;;5046351;28;20030;-75
2021/06/04 06:03:50;;;;;;;19.13;8.18;;;16.80;99.90;;;;;;5045544;28;20022;-74
2021/06/04 06:06:15;;;;;;;13.70;8.05;;;16.90;99.90;;;;;;5046154;28;20040;-73
2021/06/04 06:08:42;;;;;;;12.70;7.13;;;16.90;99.90;;;;;;5045934;28;20128;-73
2021/06/04 06:11:11;;;;;;;14.60;8.57;;;17.00;99.90;;;;;;5044386;28;20079;-71
2021/06/04 06:13:37;;;;;;;13.85;7.53;;;17.00;99.90;;;;;;5045993;28;20116;-74
2021/06/04 06:16:03;;;;;;;12.75;7.80;;;17.10;99.90;;;;;;5045175;28;20022;-72
2021/06/04 06:18:29;;;;;;;16.88;7.72;;;17.10;99.90;;;;;;5045678;28;20424;-72
2021/06/04 06:20:56;;;;;;;15.00;7.75;;;17.20;99.90;;;;;;5028056;28;20045;-70
2021/06/04 06:23:27;;;;;;;11.02;6.85;;;17.20;99.90;;;;;;5036895;28;20035;-72
2021/06/04 06:26:01;;;;;;;11.75;7.75;;;17.30;99.90;;;;;;5025491;28;20057;-73
2021/06/04 06:28:28;;;;;;;17.45;8.27;;;17.30;99.90;;;;;;5024154;28;20026;-72
2021/06/04 06:30:55;;;;;;;14.40;7.85;;;17.40;99.90;;;;;;5025440;28;20022;-73
2021/06/04 06:33:21;;;;;;;14.38;8.35;;;17.50;99.90;;;;;;5024163;28;20041;-73
2021/06/04 06:35:50;;;;;;;14.65;7.68;;;17.60;99.90;;;;;;5022396;28;20022;-74
2021/06/04 06:38:17;;;;;;;15.05;7.93;;;17.70;99.90;;;;;;5025255;28;20030;-72
2021/06/04 06:40:44;;;;;;;18.27;7.45;;;17.70;99.90;;;;;;5024165;28;20060;-72
2021/06/04 06:43:10;;;;;;;12.35;7.88;;;17.80;99.90;;;;;;5025537;28;20034;-72
2021/06/04 06:45:37;;;;;;;14.60;8.40;;;17.80;99.90;;;;;;5025436;28;20044;-73
2021/06/04 06:48:04;;;;;;;15.40;8.18;;;17.90;99.90;;;;;;5024903;28;20025;-72
2021/06/04 06:50:30;;;;;;;12.93;7.45;;;18.00;99.90;;;;;;5023725;28;20049;-73
2021/06/04 06:52:57;;;;;;;12.07;7.30;;;18.00;99.90;;;;;;5025482;28;20041;-72
2021/06/04 06:55:24;;;;;;;10.90;6.85;;;18.10;99.90;;;;;;5024889;28;20029;-73
2021/06/04 06:57:49;;;;;;;10.77;7.07;;;18.10;99.90;;;;;;5024122;28;20030;-73
2021/06/04 07:00:22;;;;;;;11.07;6.93;;;18.20;99.90;;;;;;5024552;28;20033;-73
2021/06/04 07:02:47;;;;;;;13.10;7.53;;;18.30;99.90;;;;;;5025220;28;20026;-72
2021/06/04 07:05:14;;;;;;;11.00;6.72;;;18.30;99.90;;;;;;5025363;28;20041;-73
2021/06/04 07:07:40;;;;;;;12.73;6.82;;;18.40;99.90;;;;;;5027536;28;20056;-74
2021/06/04 07:10:12;;;;;;;22.13;7.60;;;18.50;99.90;;;;;;5033914;28;20046;-72
2021/06/04 07:12:38;;;;;;;18.30;7.40;;;18.50;99.90;;;;;;5030262;28;20057;-73
2021/06/04 07:15:10;;;;;;;10.48;6.68;;;18.60;99.90;;;;;;5024053;28;20029;-73
2021/06/04 07:17:38;;;;;;;17.40;6.72;;;18.60;99.90;;;;;;5024588;28;20025;-72
2021/06/04 07:20:05;;;;;;;10.05;6.20;;;18.70;99.90;;;;;;5023896;28;20026;-73
2021/06/04 07:22:31;;;;;;;10.82;6.63;;;18.70;99.90;;;;;;5027884;28;20057;-73
2021/06/04 07:24:58;;;;;;;10.25;6.80;;;18.70;99.90;;;;;;5033151;28;20026;-74
2021/06/04 07:27:24;;;;;;;10.93;5.97;;;18.80;99.90;;;;;;5024883;28;20034;-75
2021/06/04 07:29:49;;;;;;;12.38;7.00;;;18.90;99.90;;;;;;5024465;28;20030;-75
2021/06/04 07:32:15;;;;;;;10.43;6.93;;;18.90;99.90;;;;;;5024667;28;20033;-73
2021/06/04 07:34:40;;;;;;;7.72;5.28;;;19.00;99.90;;;;;;5023840;28;20030;-74
2021/06/04 07:37:06;;;;;;;9.95;6.65;;;19.00;99.90;;;;;;5024431;28;20500;-73
2021/06/04 07:39:34;;;;;;;11.15;5.65;;;19.10;99.90;;;;;;5024195;28;20053;-73
2021/06/04 07:42:01;;;;;;;11.57;6.63;;;19.10;99.90;;;;;;5023362;28;20022;-73
2021/06/04 07:44:27;;;;;;;11.82;6.35;;;19.20;99.90;;;;;;5021049;28;20025;-75
2021/06/04 07:46:54;;;;;;;12.30;7.15;;;19.30;99.90;;;;;;5024027;28;20029;-76
2021/06/04 07:49:22;;;;;;;14.10;6.70;;;19.40;99.90;;;;;;5023773;28;20091;-76
2021/06/04 07:51:52;;;;;;;11.93;7.22;;;19.50;99.90;;;;;;5024163;28;20022;-75
2021/06/04 07:54:19;;;;;;;10.93;6.32;;;19.50;99.90;;;;;;5024235;28;20036;-75
2021/06/04 07:56:45;;;;;;;9.65;6.40;;;19.60;99.90;;;;;;5024222;28;20374;-77
2021/06/04 07:59:11;;;;;;;14.90;7.38;;;19.80;99.90;;;;;;5023594;28;20077;-75
2021/06/04 08:01:39;;;;;;;13.80;7.10;;;19.80;99.90;;;;;;5024198;28;20034;-77
2021/06/04 08:04:05;;;;;;;14.02;6.93;;;19.80;99.90;;;;;;5024123;28;20093;-75
2021/06/04 08:06:30;;;;;;;12.80;6.90;;;20.00;99.90;;;;;;5022185;28;20022;-75
2021/06/04 08:08:56;;;;;;;13.45;7.45;;;20.00;99.90;;;;;;5023048;28;20033;-78
2021/06/04 08:11:29;;;;;;;15.10;7.22;;;20.10;99.90;;;;;;5023180;28;20037;-74
2021/06/04 08:13:57;;;;;;;13.40;7.97;;;20.20;99.90;;;;;;5023953;28;20037;-75
2021/06/04 08:16:23;;;;;;;12.00;7.60;;;20.30;99.90;;;;;;5024333;28;20085;-76
2021/06/04 08:18:49;;;;;;;13.82;7.20;;;20.30;99.90;;;;;;5021904;28;20090;-76
2021/06/04 08:21:20;;;;;;;14.02;6.88;;;20.40;99.90;;;;;;5021843;28;20494;-84
2021/06/04 08:23:47;;;;;;;13.10;7.50;;;20.60;99.90;;;;;;5023689;28;20040;-74
2021/06/04 08:26:18;;;;;;;15.18;8.52;;;20.70;99.90;;;;;;5024240;28;20034;-76
2021/06/04 08:28:45;;;;;;;15.80;8.18;;;20.90;99.90;;;;;;5024117;28;20044;-75
2021/06/04 08:31:10;;;;;;;16.75;9.45;;;21.00;99.90;;;;;;5024189;28;20080;-74
2021/06/04 08:33:39;;;;;;;14.35;8.15;;;21.00;99.90;;;;;;5023604;28;20030;-76
2021/06/04 08:36:10;;;;;;;17.35;8.45;;;21.10;99.90;;;;;;5022282;28;20053;-73
2021/06/04 08:38:39;;;;;;;14.82;9.13;;;21.30;99.90;;;;;;5023777;28;20114;-72
2021/06/04 08:41:49;;;;;;;17.02;9.85;;;21.30;99.90;;;;;;5007677;28;20058;-74
2021/06/04 08:44:26;;;;;;;17.45;10.30;;;21.50;99.90;;;;;;4962612;29;20063;-73
2021/06/04 08:47:16;;;;;;;25.17;11.50;;;21.50;99.90;;;;;;5015377;28;20046;-71
2021/06/04 08:49:54;;;;;;;18.70;9.50;;;21.60;99.90;;;;;;5012638;28;20092;-74
2021/06/04 08:52:27;;;;;;;15.30;9.30;;;21.70;99.90;;;;;;5031325;28;20033;-74
2021/06/04 08:55:20;;;;;;;24.08;11.65;;;21.70;99.90;;;;;;5035242;28;20034;-75
2021/06/04 08:58:11;;;;;;;20.60;11.43;;;21.80;99.90;;;;;;5032891;28;20036;-75
2021/06/04 09:00:40;;;;;;;25.10;14.10;;;21.90;99.90;;;;;;5039677;28;20033;-76
2021/06/04 09:03:12;;;;;;;22.90;12.88;;;22.00;99.90;;;;;;5036344;28;20042;-72
2021/06/04 09:06:08;;;;;;;23.73;12.05;;;22.10;99.90;;;;;;5033260;28;20077;-77
2021/06/04 09:08:37;;;;;;;21.02;11.48;;;22.30;99.90;;;;;;5022711;28;20560;-76
2021/06/04 09:11:15;;;;;;;23.95;12.68;;;22.40;99.90;;;;;;5030871;28;20030;-72
2021/06/04 09:13:40;;;;;;;20.40;10.65;;;22.50;99.90;;;;;;5031942;28;20041;-73
2021/06/04 09:16:33;;;;;;;23.70;13.20;;;22.60;99.90;;;;;;5037948;28;20030;-72
2021/06/04 09:19:08;;;;;;;18.70;10.95;;;22.80;99.90;;;;;;5025603;28;20034;-73
2021/06/04 09:21:38;;;;;;;20.45;11.50;;;22.90;99.90;;;;;;5024287;28;20040;-74
2021/06/04 09:24:08;;;;;;;15.75;9.63;;;23.00;99.90;;;;;;5024234;28;20054;-81
2021/06/04 09:26:34;;;;;;;24.52;10.10;;;23.00;99.90;;;;;;5026002;28;20022;-77
2021/06/04 09:29:03;;;;;;;16.27;9.70;;;23.20;99.90;;;;;;5026410;28;20069;-73
2021/06/04 09:31:35;;;;;;;17.73;10.60;;;23.20;99.90;;;;;;5024972;28;20057;-77
2021/06/04 09:34:16;;;;;;;19.00;11.10;;;23.20;99.90;;;;;;5027141;28;20021;-77
2021/06/04 09:36:43;;;;;;;18.30;10.80;;;23.00;99.90;;;;;;5035151;28;20080;-77
2021/06/04 09:39:24;;;;;;;21.48;11.13;;;22.90;99.90;;;;;;5043129;28;20088;-78
2021/06/04 09:41:52;;;;;;;23.42;11.32;;;22.90;99.90;;;;;;5046735;28;20030;-79
2021/06/04 09:44:18;;;;;;;21.65;11.38;;;22.80;99.90;;;;;;5044989;28;20026;-80
2021/06/04 09:47:12;;;;;;;26.08;11.75;;;22.80;99.90;;;;;;5045351;28;20038;-74
2021/06/04 09:49:43;;;;;;;22.80;12.30;;;22.70;99.90;;;;;;5046654;28;20061;-74
2021/06/04 09:52:30;;;;;;;21.40;12.73;;;22.70;99.90;;;;;;5035020;28;20048;-74
2021/06/04 09:55:11;;;;;;;21.27;12.82;;;23.00;99.90;;;;;;5029384;28;20037;-77
2021/06/04 09:57:38;;;;;;;25.73;13.50;;;23.30;99.90;;;;;;5038513;28;20099;-75
2021/06/04 10:00:19;;;;;;;22.83;13.52;;;23.60;99.90;;;;;;5046213;28;20056;-77
2021/06/04 10:02:45;;;;;;;20.80;13.25;;;23.60;99.90;;;;;;5044806;28;20037;-78
2021/06/04 10:05:16;;;;;;;24.45;14.00;;;23.50;99.90;;;;;;5046300;28;20033;-76
2021/06/04 10:07:44;;;;;;;22.73;13.60;;;23.50;99.90;;;;;;5045647;28;20127;-75
2021/06/04 10:10:26;;;;;;;26.73;13.65;;;23.60;99.90;;;;;;5043957;28;20041;-76
2021/06/04 10:12:58;;;;;;;32.17;13.93;;;23.60;99.90;;;;;;5042287;28;20042;-76
2021/06/04 10:15:41;;;;;;;26.30;14.65;;;23.70;99.90;;;;;;5028560;28;20025;-76
2021/06/04 10:18:34;;;;;;;23.08;13.30;;;24.00;99.90;;;;;;5031201;28;20094;-77
2021/06/04 10:21:25;;;;;;;28.70;15.85;;;24.50;99.90;;;;;;5037421;28;20045;-74
2021/06/04 10:23:53;;;;;;;27.92;15.95;;;24.70;99.90;;;;;;5044048;28;20049;-73
2021/06/04 10:26:31;;;;;;;29.40;16.08;;;24.80;99.90;;;;;;5043888;28;20386;-74
2021/06/04 10:29:09;;;;;;;28.05;16.08;;;24.80;99.90;;;;;;5044127;28;20041;-73
2021/06/04 10:31:47;;;;;;;23.45;14.40;;;24.70;99.90;;;;;;5043005;28;20030;-74
2021/06/04 10:34:22;;;;;;;30.88;16.83;;;24.60;99.90;;;;;;5033748;28;20049;-74
2021/06/04 10:36:56;;;;;;;26.45;13.68;;;24.40;99.90;;;;;;5025097;28;20036;-75
2021/06/04 10:39:28;;;;;;;28.45;14.73;;;24.50;99.90;;;;;;5022203;28;20085;-75
2021/06/04 10:41:54;;;;;;;33.28;15.93;;;24.80;99.90;;;;;;5023842;28;20057;-74
2021/06/04 10:44:44;;;;;;;25.85;15.20;;;24.70;99.90;;;;;;5025278;28;20037;-74
2021/06/04 10:47:16;;;;;;;25.60;14.55;;;24.60;99.90;;;;;;5024564;28;20038;-75
2021/06/04 10:50:02;;;;;;;25.75;15.50;;;24.40;99.90;;;;;;5023155;28;20042;-74
2021/06/04 10:52:52;;;;;;;26.10;15.32;;;24.30;99.90;;;;;;5024453;28;20022;-74
2021/06/04 10:55:32;;;;;;;27.67;15.82;;;24.50;99.90;;;;;;5024419;28;20038;-75
2021/06/04 10:58:10;;;;;;;26.52;15.30;;;24.90;99.90;;;;;;5023122;28;20041;-72
2021/06/04 11:01:01;;;;;;;26.55;13.60;;;25.20;99.90;;;;;;5023915;28;20074;-74
2021/06/04 11:03:45;;;;;;;23.98;13.00;;;25.60;99.90;;;;;;5022057;28;20026;-76
2021/06/04 11:06:25;;;;;;;27.67;15.60;;;26.00;99.90;;;;;;5023743;28;20418;-74
2021/06/04 11:09:29;;;;;;;23.90;13.30;;;26.20;99.90;;;;;;5021479;28;20033;-75
2021/06/04 11:12:14;;;;;;;22.07;14.57;;;26.50;99.90;;;;;;5011931;28;20034;-73
2021/06/04 11:14:55;;;;;;;31.73;16.20;;;26.80;99.90;;;;;;5026744;28;20606;-76
2021/06/04 11:17:42;;;;;;;27.88;15.18;;;27.10;99.90;;;;;;5023874;28;20044;-78
2021/06/04 11:20:22;;;;;;;26.58;14.27;;;26.90;99.90;;;;;;5032979;28;20033;-76
2021/06/04 11:23:03;;;;;;;28.67;15.80;;;26.80;99.90;;;;;;5022383;28;20040;-78
2021/06/04 11:25:50;;;;;;;30.30;16.08;;;26.80;99.90;;;;;;5024114;28;20018;-71
2021/06/04 11:28:44;;;;;;;27.15;15.50;;;26.80;99.90;;;;;;5023851;28;20453;-71
2021/06/04 11:31:34;;;;;;;28.90;16.03;;;26.80;99.90;;;;;;5022338;28;20046;-71
2021/06/04 11:34:06;;;;;;;32.53;16.10;;;26.80;99.90;;;;;;5022461;28;20033;-75
2021/06/04 11:36:38;;;;;;;31.70;14.68;;;26.80;99.90;;;;;;5023117;28;20085;-75
2021/06/04 11:39:09;;;;;;;30.15;16.48;;;26.90;99.90;;;;;;5017237;28;20024;-75
2021/06/04 11:42:08;;;;;;;25.98;13.68;;;27.20;99.90;;;;;;5004108;28;20034;-70
2021/06/04 11:44:55;;;;;;;24.38;14.63;;;27.70;99.90;;;;;;4981693;28;20101;-74
2021/06/04 11:47:23;;;;;;;30.63;15.07;;;28.00;99.90;;;;;;5003598;28;20113;-69
2021/06/04 11:50:02;;;;;;;27.73;15.85;;;28.40;99.90;;;;;;5003988;28;20046;-72
2021/06/04 11:52:31;;;;;;;34.40;16.58;;;28.60;99.90;;;;;;5004756;28;20030;-74
2021/06/04 11:55:29;;;;;;;23.98;13.68;;;28.80;99.90;;;;;;5003851;28;20037;-74
2021/06/04 11:58:17;;;;;;;24.63;13.07;;;29.00;99.90;;;;;;5002140;28;20050;-71
2021/06/04 12:00:49;;;;;;;23.23;13.35;;;29.30;99.90;;;;;;5005292;28;20113;-77
2021/06/04 12:03:30;;;;;;;17.60;10.07;;;29.40;99.90;;;;;;5004550;28;20042;-76
2021/06/04 12:06:17;;;;;;;18.10;10.70;;;29.50;99.90;;;;;;5004688;28;20113;-80
2021/06/04 12:08:44;;;;;;;20.80;11.00;;;29.40;99.90;;;;;;5004383;28;20034;-74
2021/06/04 12:11:18;;;;;;;18.17;11.20;;;29.40;99.90;;;;;;5005161;28;20041;-75
2021/06/04 12:13:44;;;;;;;25.02;10.45;;;29.00;99.90;;;;;;5004926;28;20037;-76
2021/06/04 12:16:26;;;;;;;19.55;11.18;;;28.70;99.90;;;;;;5004602;28;20372;-75
2021/06/04 12:18:59;;;;;;;17.25;10.57;;;28.60;99.90;;;;;;5004410;28;20192;-78
2021/06/04 12:21:41;;;;;;;16.08;9.35;;;28.70;99.90;;;;;;5003262;28;20034;-71
2021/06/04 12:24:29;;;;;;;19.65;10.00;;;29.00;99.90;;;;;;5002765;28;20074;-76
2021/06/04 12:26:57;;;;;;;13.57;8.18;;;29.20;99.90;;;;;;5003223;28;20399;-75
2021/06/04 12:29:23;;;;;;;13.73;7.88;;;29.50;99.90;;;;;;5005398;28;20030;-74
2021/06/04 12:31:54;;;;;;;12.68;7.60;;;29.70;99.90;;;;;;5006689;28;20116;-70
2021/06/04 12:34:35;;;;;;;13.07;7.60;;;29.80;99.90;;;;;;5008078;28;20034;-77
2021/06/04 12:37:18;;;;;;;8.10;5.18;;;30.00;99.90;;;;;;5008700;28;20057;-76
2021/06/04 12:39:49;;;;;;;8.05;4.93;;;30.30;99.90;;;;;;5008303;28;20522;-74
2021/06/04 12:42:24;;;;;;;9.27;4.97;;;30.50;99.90;;;;;;5008875;28;20030;-77
2021/06/04 12:44:55;;;;;;;6.53;4.90;;;30.60;99.90;;;;;;5006963;28;20030;-78
2021/06/04 12:47:41;;;;;;;8.80;5.32;;;30.60;99.90;;;;;;5006503;28;20038;-72
2021/06/04 12:50:25;;;;;;;9.85;5.68;;;30.80;99.90;;;;;;5008144;28;20042;-72
2021/06/04 12:53:07;;;;;;;6.93;4.50;;;31.00;99.90;;;;;;5008372;28;20023;-75
2021/06/04 12:55:34;;;;;;;7.97;4.80;;;31.00;99.90;;;;;;5008285;28;20022;-77
2021/06/04 12:58:16;;;;;;;7.97;5.10;;;30.60;99.90;;;;;;5006512;28;20034;-71
2021/06/04 13:00:42;;;;;;;12.05;6.05;;;30.60;99.90;;;;;;5007732;28;20034;-75
2021/06/04 13:03:16;;;;;;;8.02;4.50;;;30.70;99.90;;;;;;5006535;28;20077;-76